Time;durP1;ratioP1;P1;durP2;ratioP2;P2;SDS_P1;SDS_P2;PMS_P1;PMS_P2;Temp;Humidity;BMP_temperature;BMP_pressure;BME280_temperature;BME280_humidity;BME280_pressure;Samples;Min_cycle;Max_cycle;Signal;HPM_P1;HPM_P2
2021/05/06 00:30:35;;;;;;;4.87;1.37;;;7.60;99.90;;;;;;5056119;28;20174;-82
2021/05/06 00:33:03;;;;;;;1.70;0.90;;;7.50;99.90;;;;;;5057773;28;20179;-83
2021/05/06 00:35:31;;;;;;;2.50;1.02;;;7.50;99.90;;;;;;5074030;28;20195;-82
2021/05/06 00:38:06;;;;;;;6.07;1.25;;;7.60;99.90;;;;;;5067106;28;20278;-82
2021/05/06 01:00:11;;;;;;;1.80;1.27;;;7.20;99.90;;;;;;5035235;28;20207;-83
2021/05/06 01:08:01;;;;;;;1.67;1.20;;;7.20;99.90;;;;;;5052562;28;20217;-82
2021/05/06 01:12:53;;;;;;;3.80;1.37;;;7.20;99.90;;;;;;5053709;28;20271;-83
2021/05/06 01:15:19;;;;;;;4.17;1.23;;;7.20;99.90;;;;;;5054065;28;20202;-83
2021/05/06 01:17:44;;;;;;;3.07;1.30;;;7.30;99.90;;;;;;5054549;28;20233;-83
2021/05/06 01:20:11;;;;;;;7.63;1.40;;;7.20;99.90;;;;;;5053762;28;20202;-82
2021/05/06 01:22:37;;;;;;;1.43;1.33;;;7.20;99.90;;;;;;5055008;28;20174;-83
2021/05/06 01:25:03;;;;;;;5.23;1.90;;;7.20;99.90;;;;;;5060902;28;20172;-83
2021/05/06 01:32:58;;;;;;;5.23;1.50;;;6.90;99.90;;;;;;5054481;28;20191;-82
2021/05/06 01:38:14;;;;;;;1.83;1.37;;;6.70;99.90;;;;;;5054512;28;20202;-83
2021/05/06 01:41:00;;;;;;;6.63;1.27;;;6.70;99.90;;;;;;5057571;28;20176;-82
2021/05/06 02:02:01;;;;;;;3.67;1.60;;;7.20;99.90;;;;;;5052564;28;20187;-82
2021/05/06 02:04:26;;;;;;;5.73;1.80;;;7.20;99.90;;;;;;5052383;28;20557;-83
2021/05/06 02:06:52;;;;;;;2.87;1.83;;;7.30;99.90;;;;;;5056471;28;20228;-83
2021/05/06 02:09:18;;;;;;;3.00;1.77;;;7.30;99.90;;;;;;5074153;28;20522;-83
2021/05/06 02:11:43;;;;;;;3.07;1.60;;;7.40;99.90;;;;;;5072586;28;20195;-83
2021/05/06 02:14:10;;;;;;;2.27;1.13;;;7.30;99.90;;;;;;5072463;28;20178;-83
2021/05/06 02:16:38;;;;;;;2.30;1.50;;;7.30;99.90;;;;;;5037269;28;20178;-83
2021/05/06 02:19:05;;;;;;;3.80;2.00;;;7.20;99.90;;;;;;5053815;28;20164;-83
2021/05/06 02:21:31;;;;;;;2.33;1.90;;;7.30;99.90;;;;;;5052356;28;20194;-83
2021/05/06 02:23:56;;;;;;;6.40;1.80;;;7.30;99.90;;;;;;5052597;28;20646;-83
2021/05/06 02:26:22;;;;;;;3.70;1.60;;;7.30;99.90;;;;;;5051851;28;20228;-83
2021/05/06 02:28:48;;;;;;;6.77;2.10;;;7.40;99.90;;;;;;5052401;28;20209;-83
2021/05/06 02:31:16;;;;;;;2.43;1.73;;;7.50;99.90;;;;;;5052302;28;20694;-84
2021/05/06 02:33:43;;;;;;;6.83;1.80;;;7.60;99.90;;;;;;5052171;28;20193;-83
2021/05/06 02:36:09;;;;;;;2.87;1.80;;;7.60;99.90;;;;;;5053215;28;20195;-83
2021/05/06 02:38:35;;;;;;;4.13;1.83;;;7.50;99.90;;;;;;5053368;28;20167;-83
2021/05/06 02:41:01;;;;;;;4.32;1.60;;;7.40;99.90;;;;;;5052404;28;20505;-83
2021/05/06 02:43:27;;;;;;;6.07;1.70;;;7.40;99.90;;;;;;5052150;28;20254;-83
2021/05/06 02:45:53;;;;;;;3.70;1.63;;;7.30;99.90;;;;;;5053163;28;20207;-83
2021/05/06 02:48:19;;;;;;;7.87;1.90;;;7.20;99.90;;;;;;5053388;28;20250;-83
2021/05/06 02:50:50;;;;;;;5.83;1.80;;;7.10;99.90;;;;;;5053276;28;20221;-83
2021/05/06 02:53:19;;;;;;;5.10;2.20;;;7.00;99.90;;;;;;5052048;28;20207;-83
2021/05/06 02:55:58;;;;;;;4.80;2.10;;;6.90;99.90;;;;;;5051829;28;20581;-83
2021/05/06 03:03:59;;;;;;;5.07;2.00;;;6.80;99.90;;;;;;5034781;28;20179;-84
2021/05/06 03:06:27;;;;;;;6.00;2.30;;;6.70;99.90;;;;;;5042656;28;20193;-83
2021/05/06 03:12:31;;;;;;;4.57;2.37;;;6.60;99.90;;;;;;5033308;28;20180;-83
2021/05/06 03:21:06;;;;;;;6.13;2.27;;;6.70;99.90;;;;;;5056309;28;20539;-83
2021/05/06 03:22:59;;;;;;;3.03;2.33;;;6.70;99.90;;;;;;5056790;28;20535;-83
2021/05/06 03:25:27;;;;;;;2.90;2.60;;;6.70;99.90;;;;;;5055794;28;20184;-83
2021/05/06 03:35:44;;;;;;;6.37;2.67;;;6.70;99.90;;;;;;5056474;28;20234;-83
2021/05/06 04:18:53;;;;;;;4.93;2.50;;;6.50;99.90;;;;;;5058068;28;20275;-83
2021/05/06 04:27:25;;;;;;;6.13;3.60;;;6.60;99.90;;;;;;5056534;28;20190;-82
2021/05/06 04:37:26;;;;;;;6.57;2.73;;;7.00;99.90;;;;;;5056134;28;20190;-83
2021/05/06 04:39:56;;;;;;;9.03;3.33;;;7.00;99.90;;;;;;5056311;28;20211;-83
2021/05/06 04:55:51;;;;;;;7.00;3.35;;;7.60;99.90;;;;;;5054106;28;20202;-83
2021/05/06 05:06:50;;;;;;;10.45;2.92;;;8.30;99.90;;;;;;5053669;28;20187;-82
2021/05/06 05:12:14;;;;;;;8.93;5.03;;;8.80;99.90;;;;;;5060423;28;20631;-87
2021/05/06 05:20:19;;;;;;;5.25;2.78;;;9.50;99.90;;;;;;5055910;28;20637;-87
2021/05/06 05:25:42;;;;;;;4.80;2.30;;;9.60;99.90;;;;;;5055876;28;20643;-87
2021/05/06 05:28:09;;;;;;;6.30;2.88;;;9.60;99.90;;;;;;5053692;28;20627;-88
2021/05/06 05:30:38;;;;;;;4.07;2.65;;;9.50;99.90;;;;;;5055362;28;20159;-86
2021/05/06 05:33:11;;;;;;;6.22;3.20;;;9.20;99.90;;;;;;5054844;28;20373;-87
2021/05/06 05:54:31;;;;;;;7.80;2.45;;;11.80;99.90;;;;;;5055206;28;20180;-87
2021/05/06 05:56:42;;;;;;;2.67;1.70;;;14.60;99.90;;;;;;5054555;28;20222;-87
2021/05/06 05:59:08;;;;;;;6.47;2.15;;;14.90;99.90;;;;;;5054276;28;20199;-87
2021/05/06 06:01:34;;;;;;;4.07;1.92;;;15.30;99.90;;;;;;5053143;28;20210;-87
2021/05/06 06:04:00;;;;;;;6.20;2.30;;;16.10;99.90;;;;;;5052980;28;20267;-88
2021/05/06 06:06:26;;;;;;;4.13;2.03;;;16.90;99.90;;;;;;5054082;28;20738;-88
2021/05/06 06:08:52;;;;;;;3.35;1.50;;;17.80;99.90;;;;;;5052861;28;20541;-85
2021/05/06 06:11:18;;;;;;;3.75;2.13;;;18.40;99.90;;;;;;5054379;28;20166;-87
2021/05/06 06:13:50;;;;;;;3.65;1.70;;;18.50;99.90;;;;;;5053165;28;20179;-86
2021/05/06 06:18:54;;;;;;;6.97;1.98;;;18.70;99.90;;;;;;5064957;28;20180;-87
2021/05/06 06:21:59;;;;;;;6.80;2.25;;;18.50;99.90;;;;;;5071904;28;20182;-87
2021/05/06 06:24:12;;;;;;;4.70;1.70;;;18.50;99.90;;;;;;5064293;28;20168;-86
2021/05/06 06:26:38;;;;;;;6.32;1.80;;;18.90;99.90;;;;;;5054095;28;20576;-87
2021/05/06 06:29:16;;;;;;;4.82;2.15;;;19.50;99.90;;;;;;5052655;28;20178;-87
2021/05/06 06:31:46;;;;;;;5.28;2.05;;;20.00;99.90;;;;;;5054074;28;20193;-86
2021/05/06 06:34:12;;;;;;;2.50;1.90;;;20.40;99.90;;;;;;5052741;28;20236;-86
2021/05/06 06:36:39;;;;;;;2.83;1.50;;;20.10;99.90;;;;;;5063470;28;20194;-87
2021/05/06 06:39:05;;;;;;;4.50;2.10;;;19.50;99.90;;;;;;5067805;28;20230;-86
2021/05/06 06:41:31;;;;;;;3.53;1.85;;;18.50;99.90;;;;;;5058443;28;20175;-86
2021/05/06 06:44:00;;;;;;;10.15;1.95;;;18.00;99.90;;;;;;5053662;28;20171;-87
2021/05/06 06:46:25;;;;;;;5.40;1.98;;;17.90;99.90;;;;;;5052598;28;20175;-86
2021/05/06 06:48:51;;;;;;;3.70;2.00;;;17.80;99.90;;;;;;5053285;28;20586;-86
2021/05/06 06:51:17;;;;;;;7.53;2.17;;;18.10;99.90;;;;;;5053503;28;20250;-86
2021/05/06 06:53:42;;;;;;;3.88;1.90;;;19.60;99.90;;;;;;5052325;28;20175;-86
2021/05/06 06:56:08;;;;;;;8.45;2.30;;;21.40;99.90;;;;;;5053465;28;20627;-86
2021/05/06 06:58:34;;;;;;;8.68;2.10;;;21.90;99.90;;;;;;5053241;28;20609;-85
2021/05/06 07:01:00;;;;;;;5.60;1.67;;;21.40;99.90;;;;;;5053569;28;20182;-85
2021/05/06 07:03:26;;;;;;;6.38;1.90;;;20.00;99.90;;;;;;5035781;28;20210;-86
2021/05/06 07:05:52;;;;;;;7.00;2.03;;;18.60;99.90;;;;;;5053240;28;20172;-85
2021/05/06 07:08:29;;;;;;;3.63;2.30;;;17.50;99.90;;;;;;5051687;28;20171;-86
2021/05/06 07:10:57;;;;;;;8.35;2.30;;;17.00;99.90;;;;;;5053122;28;20163;-86
2021/05/06 07:13:24;;;;;;;9.05;2.08;;;17.60;99.90;;;;;;5052032;28;20189;-86
2021/05/06 07:15:51;;;;;;;5.88;2.20;;;18.10;99.90;;;;;;5051835;28;20244;-86
2021/05/06 07:18:19;;;;;;;5.15;2.40;;;18.30;99.90;;;;;;5051991;28;20651;-85
2021/05/06 07:20:46;;;;;;;6.95;2.17;;;19.70;99.90;;;;;;5053251;28;20210;-86
2021/05/06 07:23:12;;;;;;;8.27;2.53;;;21.30;99.90;;;;;;5053387;28;20202;-86
2021/05/06 07:25:38;;;;;;;3.55;1.83;;;21.30;99.90;;;;;;5053171;28;20632;-85
2021/05/06 07:28:10;;;;;;;5.20;2.20;;;22.20;99.90;;;;;;5053317;28;20179;-87
2021/05/06 07:30:36;;;;;;;3.60;2.10;;;23.40;99.40;;;;;;5053200;28;20631;-86
2021/05/06 07:33:02;;;;;;;3.00;1.90;;;24.30;97.60;;;;;;5053491;28;20237;-87
2021/05/06 07:35:27;;;;;;;2.72;1.75;;;24.80;96.70;;;;;;5035772;28;20223;-78
2021/05/06 07:37:53;;;;;;;5.00;1.90;;;25.40;95.60;;;;;;5034928;28;20585;-80
2021/05/06 07:40:18;;;;;;;2.83;1.80;;;25.60;93.70;;;;;;5051423;28;20171;-79
2021/05/06 07:42:44;;;;;;;2.75;1.88;;;25.00;92.70;;;;;;5053046;28;20176;-79
2021/05/06 07:45:10;;;;;;;4.35;2.10;;;24.60;92.50;;;;;;5051728;28;20186;-79
2021/05/06 07:47:36;;;;;;;2.88;1.67;;;24.00;93.50;;;;;;5052879;28;20170;-79
2021/05/06 07:50:02;;;;;;;5.32;1.70;;;21.90;94.60;;;;;;5055727;28;20606;-78
2021/05/06 07:52:28;;;;;;;2.80;1.92;;;19.60;97.00;;;;;;5056927;28;20225;-88
2021/05/06 07:54:56;;;;;;;6.85;2.25;;;18.30;99.20;;;;;;5055758;28;20196;-88
2021/05/06 07:57:21;;;;;;;4.53;1.75;;;18.80;99.90;;;;;;5057096;28;20723;-87
2021/05/06 07:59:47;;;;;;;5.28;1.98;;;20.20;99.90;;;;;;5055916;28;20199;-88
2021/05/06 08:02:13;;;;;;;2.42;1.75;;;21.60;99.60;;;;;;5039404;28;20543;-88
2021/05/06 08:04:38;;;;;;;2.67;1.83;;;22.50;96.10;;;;;;5039174;28;20262;-89
2021/05/06 08:07:04;;;;;;;3.95;1.95;;;23.10;95.00;;;;;;5057095;28;20232;-88
2021/05/06 08:09:30;;;;;;;9.85;2.00;;;24.90;94.40;;;;;;5065640;28;20639;-88
2021/05/06 08:11:59;;;;;;;4.15;2.03;;;26.70;91.40;;;;;;5069754;28;20181;-88
2021/05/06 08:14:25;;;;;;;6.70;1.90;;;27.00;90.20;;;;;;5067649;28;20175;-88
2021/05/06 08:16:51;;;;;;;5.68;1.98;;;28.00;88.50;;;;;;5062550;28;20225;-91
2021/05/06 08:19:17;;;;;;;3.75;2.10;;;28.20;85.90;;;;;;5056747;28;20163;-90
2021/05/06 08:21:43;;;;;;;2.50;1.55;;;28.10;80.50;;;;;;5055635;28;20233;-89
2021/05/06 08:24:09;;;;;;;7.03;2.10;;;27.60;83.40;;;;;;5055559;28;20171;-89
2021/05/06 08:26:35;;;;;;;4.13;2.13;;;27.80;82.80;;;;;;5055857;28;20171;-87
2021/05/06 08:29:01;;;;;;;4.18;1.80;;;27.60;81.50;;;;;;5056753;28;20237;-90
2021/05/06 08:31:27;;;;;;;2.05;1.50;;;28.70;79.70;;;;;;5055662;28;20182;-89
2021/05/06 08:33:53;;;;;;;3.38;1.63;;;27.50;82.10;;;;;;5055637;28;20182;-90
2021/05/06 08:36:18;;;;;;;6.05;1.90;;;26.00;83.50;;;;;;5056814;28;20211;-88
2021/05/06 08:38:44;;;;;;;3.75;1.48;;;24.90;81.50;;;;;;5055451;28;20313;-90
2021/05/06 08:41:09;;;;;;;2.22;1.52;;;25.20;83.30;;;;;;5055822;28;20235;-90
2021/05/06 08:43:38;;;;;;;3.88;1.10;;;25.60;79.20;;;;;;5056869;28;20198;-90
2021/05/06 08:46:04;;;;;;;2.45;1.58;;;26.40;80.60;;;;;;5065242;28;20175;-90
2021/05/06 08:48:31;;;;;;;1.95;1.35;;;26.80;81.10;;;;;;5073862;28;20175;-90
2021/05/06 08:50:58;;;;;;;3.20;1.15;;;27.90;78.90;;;;;;5071600;28;20163;-91
2021/05/06 08:53:25;;;;;;;1.65;1.25;;;28.50;77.40;;;;;;5057428;28;20604;-87
2021/05/06 08:55:56;;;;;;;2.95;1.35;;;28.90;73.30;;;;;;5055003;28;20329;-92
2021/05/06 08:58:22;;;;;;;4.15;1.23;;;28.50;72.00;;;;;;5054941;28;20175;-90
2021/05/06 09:00:48;;;;;;;2.67;1.40;;;28.10;71.20;;;;;;5038134;28;20647;-91
2021/05/06 09:03:14;;;;;;;8.93;2.00;;;27.90;72.00;;;;;;5060757;28;20179;-94
2021/05/06 09:06:17;;;;;;;3.92;1.02;;;27.20;72.10;;;;;;5072175;28;20210;-94
2021/05/06 09:08:49;;;;;;;1.42;1.00;;;26.70;74.10;;;;;;5059812;28;20179;-91
2021/05/06 09:11:16;;;;;;;2.80;1.30;;;25.50;74.90;;;;;;5056212;28;20690;-91
2021/05/06 09:13:42;;;;;;;4.15;1.52;;;23.50;80.80;;;;;;5054902;28;20180;-92
2021/05/06 09:16:08;;;;;;;8.88;1.63;;;22.00;85.60;;;;;;5054739;28;20203;-91
2021/05/06 09:18:38;;;;;;;3.38;1.80;;;21.40;89.30;;;;;;5054881;28;20265;-92
2021/05/06 09:21:05;;;;;;;2.25;1.25;;;22.50;87.80;;;;;;5054788;28;20309;-91
2021/05/06 09:23:33;;;;;;;3.22;1.40;;;21.90;82.70;;;;;;5054719;28;20166;-92
2021/05/06 09:26:06;;;;;;;2.83;1.58;;;21.40;85.80;;;;;;5054809;28;20217;-91
2021/05/06 09:28:36;;;;;;;5.25;1.90;;;21.50;86.90;;;;;;5054526;28;20167;-92
2021/05/06 09:31:07;;;;;;;2.28;1.30;;;21.80;86.90;;;;;;5055311;28;20163;-92
2021/05/06 09:33:35;;;;;;;4.40;1.45;;;22.10;87.20;;;;;;5054522;28;20183;-91
2021/05/06 09:36:17;;;;;;;1.60;1.17;;;22.40;84.00;;;;;;5055449;28;20199;-91
2021/05/06 09:38:46;;;;;;;2.95;1.40;;;22.10;82.80;;;;;;5054422;28;20628;-92
2021/05/06 09:41:14;;;;;;;4.40;1.40;;;21.50;85.40;;;;;;5055543;28;20648;-92
2021/05/06 09:43:41;;;;;;;1.75;1.33;;;21.20;86.10;;;;;;5054745;28;20253;-91
2021/05/06 09:46:30;;;;;;;3.03;1.25;;;20.60;87.90;;;;;;5054454;28;20202;-91
2021/05/06 09:49:03;;;;;;;3.72;1.27;;;20.30;86.40;;;;;;5054006;28;20172;-92
2021/05/06 09:52:00;;;;;;;5.75;1.50;;;20.60;87.70;;;;;;5055111;28;20197;-93
2021/05/06 09:54:28;;;;;;;4.78;1.48;;;20.50;87.20;;;;;;5053289;28;20170;-84
2021/05/06 09:57:06;;;;;;;1.77;1.20;;;20.30;90.10;;;;;;5046204;28;20199;-83
2021/05/06 09:59:39;;;;;;;4.93;1.52;;;20.50;88.20;;;;;;5051817;28;20202;-83
2021/05/06 10:02:10;;;;;;;3.85;1.30;;;20.80;89.30;;;;;;5052681;28;20203;-82
2021/05/06 10:04:40;;;;;;;1.85;1.13;;;20.60;86.80;;;;;;5053998;28;20163;-84
2021/05/06 10:07:22;;;;;;;1.83;1.20;;;20.30;88.10;;;;;;5053730;28;20163;-84
2021/05/06 10:09:52;;;;;;;7.35;1.30;;;20.30;89.40;;;;;;5053881;28;20194;-84
2021/05/06 10:12:18;;;;;;;5.18;1.77;;;20.70;89.60;;;;;;5052909;28;20159;-86
2021/05/06 10:14:47;;;;;;;3.80;1.70;;;20.70;89.40;;;;;;5052316;28;20210;-84
2021/05/06 10:17:19;;;;;;;4.32;1.55;;;20.60;86.80;;;;;;5052472;28;20184;-84
2021/05/06 10:19:45;;;;;;;3.15;1.30;;;20.40;89.10;;;;;;5052220;28;20283;-84
2021/05/06 10:22:13;;;;;;;2.60;1.40;;;20.30;89.00;;;;;;5053384;28;20167;-84
2021/05/06 10:24:44;;;;;;;7.50;1.55;;;19.80;90.10;;;;;;5053615;28;20189;-84
2021/05/06 10:27:21;;;;;;;1.65;1.38;;;19.30;88.10;;;;;;5053551;28;20220;-85
2021/05/06 10:29:51;;;;;;;5.63;1.85;;;19.20;91.30;;;;;;5051998;28;20651;-83
2021/05/06 10:32:17;;;;;;;3.75;1.63;;;19.10;91.40;;;;;;5052167;28;20613;-84
2021/05/06 10:34:46;;;;;;;5.85;1.67;;;19.00;90.40;;;;;;5052250;28;20195;-84
2021/05/06 10:37:12;;;;;;;4.78;1.73;;;19.10;90.60;;;;;;5051636;28;20182;-85
2021/05/06 10:39:45;;;;;;;3.63;1.45;;;19.30;91.20;;;;;;5052172;28;20175;-84
2021/05/06 10:42:30;;;;;;;4.72;1.98;;;19.50;89.90;;;;;;5052434;28;20203;-84
2021/05/06 10:45:16;;;;;;;4.50;1.70;;;20.00;89.70;;;;;;5053235;28;20175;-83
2021/05/06 10:47:51;;;;;;;8.40;1.55;;;20.00;89.30;;;;;;5052813;28;20628;-83
2021/05/06 10:50:32;;;;;;;5.70;1.52;;;19.30;89.90;;;;;;5053313;28;20628;-83
2021/05/06 10:52:58;;;;;;;2.90;1.80;;;18.60;90.60;;;;;;5053305;28;20616;-83
2021/05/06 10:55:48;;;;;;;5.57;1.80;;;18.80;92.00;;;;;;5053162;28;20195;-83
2021/05/06 10:58:25;;;;;;;4.45;1.60;;;18.90;92.30;;;;;;5049251;28;20546;-84
2021/05/06 11:01:08;;;;;;;4.88;1.73;;;18.50;91.30;;;;;;5051816;28;20166;-84
2021/05/06 11:03:35;;;;;;;2.83;1.75;;;17.90;91.20;;;;;;5051821;28;20175;-84
2021/05/06 11:06:00;;;;;;;8.75;1.77;;;17.70;91.10;;;;;;5052792;28;20178;-82
2021/05/06 11:08:27;;;;;;;2.65;1.60;;;17.60;92.30;;;;;;5051971;28;20167;-90
2021/05/06 11:10:53;;;;;;;2.67;1.30;;;17.90;91.60;;;;;;5053174;28;20171;-93
2021/05/06 11:13:25;;;;;;;2.17;1.63;;;17.90;92.40;;;;;;5067131;28;20211;-92
2021/05/06 11:15:51;;;;;;;8.23;2.13;;;18.00;94.10;;;;;;5073903;28;20253;-90
2021/05/06 11:18:39;;;;;;;6.53;1.80;;;18.50;92.60;;;;;;5070425;28;20184;-93
2021/05/06 11:21:04;;;;;;;3.50;1.70;;;18.50;92.30;;;;;;5053369;28;20358;-91
2021/05/06 11:23:31;;;;;;;5.25;1.60;;;18.40;92.00;;;;;;5054970;28;20167;-94
2021/05/06 11:26:06;;;;;;;32.85;3.58;;;17.80;93.00;;;;;;5057087;28;20225;-93
2021/05/06 11:28:32;;;;;;;3.28;1.90;;;17.20;94.10;;;;;;5057075;28;20469;-91
2021/05/06 11:30:58;;;;;;;4.82;1.83;;;16.70;94.70;;;;;;5061956;28;20221;-79
2021/05/06 11:33:25;;;;;;;10.32;2.28;;;16.50;95.20;;;;;;5061954;28;20187;-80
2021/05/06 11:36:09;;;;;;;4.75;2.00;;;16.30;96.30;;;;;;5068442;28;20276;-81
2021/05/06 11:38:35;;;;;;;5.32;1.85;;;16.40;95.20;;;;;;5056886;28;20172;-79
2021/05/06 11:41:02;;;;;;;5.82;1.85;;;16.50;95.50;;;;;;5055192;28;20178;-79
2021/05/06 11:43:28;;;;;;;3.45;1.80;;;16.40;95.50;;;;;;5056872;28;20175;-83
2021/05/06 11:46:24;;;;;;;5.95;1.77;;;16.30;94.00;;;;;;5056347;28;20183;-80
2021/05/06 11:48:53;;;;;;;9.02;1.70;;;16.10;95.90;;;;;;5051915;28;20184;-80
2021/05/06 11:51:49;;;;;;;5.70;2.13;;;16.10;95.30;;;;;;5056480;28;20536;-79
2021/05/06 11:54:25;;;;;;;4.63;1.83;;;16.20;96.10;;;;;;5071224;28;20274;-80
2021/05/06 11:56:55;;;;;;;3.95;1.40;;;16.40;95.90;;;;;;5037944;28;20168;-79
2021/05/06 11:59:23;;;;;;;2.58;1.48;;;16.80;94.60;;;;;;5037429;28;20168;-80
2021/05/06 12:01:50;;;;;;;4.65;1.80;;;17.30;94.50;;;;;;5037504;28;20168;-79
2021/05/06 12:04:34;;;;;;;3.20;1.63;;;17.80;93.60;;;;;;5037492;28;20168;-80
2021/05/06 12:07:11;;;;;;;5.35;1.60;;;17.70;93.40;;;;;;5037061;28;20152;-79
2021/05/06 12:09:37;;;;;;;6.13;1.65;;;17.90;93.00;;;;;;5069331;28;20175;-80
2021/05/06 12:12:03;;;;;;;8.68;2.13;;;18.20;93.20;;;;;;5047314;28;20171;-80
2021/05/06 12:14:36;;;;;;;10.20;2.13;;;18.10;93.60;;;;;;5057020;28;20176;-80
2021/05/06 12:17:05;;;;;;;3.58;1.90;;;18.10;95.20;;;;;;5057099;28;20159;-79
2021/05/06 12:19:31;;;;;;;2.53;1.55;;;18.50;93.40;;;;;;5056664;28;20163;-80
2021/05/06 12:21:59;;;;;;;4.38;1.85;;;18.80;92.90;;;;;;5056665;28;20174;-80
2021/05/06 12:24:31;;;;;;;5.18;1.95;;;18.70;93.10;;;;;;5057076;28;20229;-79
2021/05/06 12:26:58;;;;;;;2.25;1.58;;;19.10;92.10;;;;;;5056238;28;20168;-82
2021/05/06 12:29:28;;;;;;;4.55;2.05;;;19.20;92.40;;;;;;5054958;28;20562;-80
2021/05/06 12:31:54;;;;;;;4.78;1.60;;;19.50;91.70;;;;;;5055479;28;20198;-81
2021/05/06 12:34:22;;;;;;;2.13;1.42;;;19.60;91.30;;;;;;5056365;28;20636;-80
2021/05/06 12:36:57;;;;;;;5.30;1.42;;;19.90;91.30;;;;;;5055488;28;20176;-80
2021/05/06 12:39:23;;;;;;;4.03;1.90;;;19.60;90.70;;;;;;5055300;28;20167;-80
2021/05/06 12:41:54;;;;;;;4.18;1.60;;;19.80;90.50;;;;;;5055143;28;20186;-79
2021/05/06 12:44:36;;;;;;;6.38;1.48;;;20.10;91.20;;;;;;5056812;28;20262;-81
2021/05/06 12:47:14;;;;;;;6.28;1.90;;;20.00;90.70;;;;;;5055016;28;20222;-80
2021/05/06 12:49:40;;;;;;;2.33;1.50;;;19.60;91.30;;;;;;5056028;28;20186;-80
2021/05/06 12:52:05;;;;;;;5.65;1.88;;;19.40;92.10;;;;;;5054430;28;20180;-80
2021/05/06 12:54:35;;;;;;;5.15;1.63;;;19.50;91.50;;;;;;5055288;28;20294;-80
2021/05/06 12:57:15;;;;;;;4.78;1.63;;;19.60;91.30;;;;;;5054520;28;20530;-79
2021/05/06 12:59:48;;;;;;;3.53;1.60;;;19.20;93.00;;;;;;5059391;28;20170;-80
2021/05/06 13:02:15;;;;;;;6.90;2.08;;;18.80;93.40;;;;;;5058851;28;20172;-78
2021/05/06 13:05:01;;;;;;;11.80;2.10;;;18.60;93.40;;;;;;5055490;28;20168;-79
2021/05/06 13:07:28;;;;;;;6.70;1.67;;;18.60;93.00;;;;;;5034073;28;20610;-79
2021/05/06 13:09:54;;;;;;;6.70;1.92;;;18.50;93.10;;;;;;5042229;28;20532;-79
2021/05/06 13:12:23;;;;;;;7.78;2.17;;;18.40;93.70;;;;;;5054145;28;20179;-81
2021/05/06 13:14:53;;;;;;;6.80;2.10;;;18.00;93.70;;;;;;5053668;28;20195;-80
2021/05/06 13:17:23;;;;;;;6.43;1.73;;;17.70;94.60;;;;;;5042623;28;20191;-78
2021/05/06 13:19:49;;;;;;;6.05;2.05;;;17.60;94.10;;;;;;5052773;28;20172;-79
2021/05/06 13:22:15;;;;;;;4.75;2.00;;;17.70;95.00;;;;;;5055113;28;20560;-79
2021/05/06 13:24:41;;;;;;;7.60;2.30;;;17.90;94.70;;;;;;5054755;28;20539;-79
2021/05/06 13:27:18;;;;;;;8.50;1.63;;;18.10;94.60;;;;;;5057861;28;20174;-79
2021/05/06 13:30:04;;;;;;;8.18;1.85;;;18.10;92.80;;;;;;5054759;28;20253;-80
2021/05/06 13:32:38;;;;;;;6.40;1.73;;;17.90;92.60;;;;;;5054700;28;20217;-79
2021/05/06 13:35:15;;;;;;;8.00;2.00;;;17.80;94.30;;;;;;5054428;28;20298;-79
2021/05/06 13:37:44;;;;;;;4.25;2.20;;;17.80;93.60;;;;;;5054328;28;20662;-80
2021/05/06 13:40:10;;;;;;;6.07;1.73;;;18.20;93.30;;;;;;5048296;28;20172;-80
2021/05/06 13:42:38;;;;;;;7.97;1.95;;;18.30;93.00;;;;;;5054635;28;20179;-80
2021/05/06 13:45:06;;;;;;;15.00;1.95;;;18.20;93.80;;;;;;5035544;28;20212;-81
2021/05/06 13:47:32;;;;;;;7.45;1.85;;;18.60;92.90;;;;;;5037617;28;20180;-80
2021/05/06 13:49:58;;;;;;;4.07;1.80;;;18.50;92.00;;;;;;5031565;28;20532;-80
2021/05/06 13:52:26;;;;;;;9.07;2.33;;;18.20;93.20;;;;;;5015483;28;20172;-80
2021/05/06 13:54:52;;;;;;;5.97;1.95;;;18.20;93.10;;;;;;5032116;28;20200;-80
2021/05/06 13:57:19;;;;;;;5.13;1.80;;;18.50;90.90;;;;;;5011832;28;20173;-80
2021/05/06 13:59:45;;;;;;;3.80;1.92;;;18.90;90.90;;;;;;5029619;28;20280;-80
2021/05/06 14:02:11;;;;;;;6.07;1.80;;;19.00;91.00;;;;;;5039610;28;20189;-83
2021/05/06 14:04:37;;;;;;;4.30;1.90;;;19.00;92.10;;;;;;5032740;28;20188;-80
2021/05/06 14:07:02;;;;;;;7.82;2.13;;;18.90;92.90;;;;;;5016312;28;20256;-93
2021/05/06 14:09:28;;;;;;;5.78;2.22;;;18.50;92.80;;;;;;5032892;28;20382;-94
2021/05/06 14:11:54;;;;;;;4.75;2.05;;;18.20;91.80;;;;;;5016381;28;20183;-93
2021/05/06 14:14:20;;;;;;;3.35;2.13;;;18.10;93.80;;;;;;5016506;28;20176;-93
2021/05/06 14:16:46;;;;;;;14.95;2.63;;;17.90;94.10;;;;;;5033232;28;20207;-91
2021/05/06 14:19:13;;;;;;;5.93;2.65;;;17.60;93.80;;;;;;5052492;28;20175;-82
2021/05/06 14:21:40;;;;;;;6.80;2.20;;;17.10;95.00;;;;;;5053510;28;20237;-81
2021/05/06 14:24:09;;;;;;;6.15;2.40;;;16.80;94.80;;;;;;5052308;28;20628;-81
2021/05/06 14:26:34;;;;;;;5.30;2.38;;;16.80;94.80;;;;;;5051953;28;20195;-82
2021/05/06 14:29:00;;;;;;;6.50;2.40;;;16.90;96.30;;;;;;5053185;28;20301;-79
2021/05/06 14:31:25;;;;;;;10.23;2.65;;;17.20;95.90;;;;;;5053794;28;20179;-87
2021/05/06 14:33:51;;;;;;;8.55;2.78;;;17.60;94.60;;;;;;5053655;28;20260;-87
2021/05/06 14:36:17;;;;;;;5.30;2.20;;;17.60;94.00;;;;;;5052604;28;20290;-85
2021/05/06 14:38:43;;;;;;;3.83;2.30;;;17.50;95.20;;;;;;5035923;28;20175;-88
2021/05/06 14:41:09;;;;;;;6.07;2.47;;;17.20;95.20;;;;;;5052386;28;20171;-86
2021/05/06 14:43:36;;;;;;;3.78;2.55;;;17.10;95.30;;;;;;5053320;28;20180;-85
2021/05/06 14:46:02;;;;;;;4.65;2.60;;;16.80;95.00;;;;;;5035939;28;20179;-87
2021/05/06 14:48:28;;;;;;;9.13;2.20;;;16.50;96.10;;;;;;5053635;28;20182;-86
2021/05/06 14:50:54;;;;;;;6.53;2.38;;;16.40;96.20;;;;;;5051960;28;20176;-86
2021/05/06 14:53:20;;;;;;;11.63;2.90;;;16.30;96.80;;;;;;5035990;28;20178;-87
2021/05/06 14:55:46;;;;;;;6.15;2.60;;;16.10;97.40;;;;;;5052483;28;20195;-85
2021/05/06 14:58:12;;;;;;;10.10;2.63;;;15.90;97.10;;;;;;5053409;28;20168;-86
2021/05/06 15:00:38;;;;;;;4.35;1.98;;;16.00;97.90;;;;;;5053770;28;20518;-86
2021/05/06 15:03:04;;;;;;;5.65;2.90;;;16.20;97.70;;;;;;5052397;28;20635;-86
2021/05/06 15:05:30;;;;;;;6.20;2.53;;;16.40;96.70;;;;;;5053219;28;20190;-85
2021/05/06 15:07:57;;;;;;;3.38;2.60;;;16.70;96.80;;;;;;5053362;28;20172;-87
2021/05/06 15:10:23;;;;;;;6.18;2.60;;;17.00;96.30;;;;;;5052448;28;20650;-86
2021/05/06 15:12:49;;;;;;;6.68;2.83;;;17.00;97.00;;;;;;5031975;28;20179;-85
2021/05/06 15:15:16;;;;;;;6.72;2.92;;;16.70;96.90;;;;;;5035488;28;20232;-86
2021/05/06 15:17:42;;;;;;;4.90;2.13;;;16.50;96.90;;;;;;5051964;28;20186;-87
2021/05/06 15:20:09;;;;;;;5.30;2.70;;;16.10;97.80;;;;;;5055501;28;20167;-86
2021/05/06 15:22:35;;;;;;;3.33;2.30;;;16.00;98.80;;;;;;5053394;28;20639;-86
2021/05/06 15:25:01;;;;;;;6.53;2.30;;;15.80;99.60;;;;;;5054215;28;20171;-87
2021/05/06 15:27:27;;;;;;;8.98;2.47;;;15.90;99.10;;;;;;5052567;28;20175;-87
2021/05/06 15:29:53;;;;;;;9.82;3.13;;;15.90;99.40;;;;;;5036746;28;20182;-88
2021/05/06 15:32:18;;;;;;;5.35;2.78;;;15.90;99.10;;;;;;5052749;28;20182;-86
2021/05/06 15:34:44;;;;;;;10.98;3.40;;;16.20;98.50;;;;;;5054142;28;20168;-86
2021/05/06 15:37:10;;;;;;;4.10;2.53;;;16.20;98.10;;;;;;5053933;28;20175;-87
2021/05/06 15:39:39;;;;;;;7.57;2.90;;;16.10;98.10;;;;;;5053820;28;20551;-87
2021/05/06 15:42:05;;;;;;;4.68;3.25;;;15.70;98.60;;;;;;5053561;28;20179;-86
2021/05/06 15:44:31;;;;;;;4.80;3.25;;;15.70;98.50;;;;;;5052782;28;20229;-85
2021/05/06 15:47:03;;;;;;;7.85;2.80;;;15.50;99.90;;;;;;5053647;28;20219;-86
2021/05/06 15:49:34;;;;;;;6.22;2.90;;;15.40;99.40;;;;;;5053543;28;20179;-86
2021/05/06 15:52:01;;;;;;;14.18;3.40;;;15.50;99.60;;;;;;5052758;28;20174;-88
2021/05/06 15:54:28;;;;;;;7.05;3.25;;;15.30;99.90;;;;;;5035637;28;20176;-87
2021/05/06 15:56:54;;;;;;;4.85;3.00;;;15.00;99.90;;;;;;5052064;28;20190;-86
2021/05/06 15:59:20;;;;;;;6.90;4.00;;;14.80;99.90;;;;;;5052336;28;20163;-87
2021/05/06 16:01:46;;;;;;;6.82;5.20;;;14.60;99.90;;;;;;5053121;28;20163;-87
2021/05/06 16:04:15;;;;;;;5.13;4.63;;;14.00;99.90;;;;;;5053638;28;20659;-88
2021/05/06 16:06:41;;;;;;;5.20;4.60;;;13.90;99.90;;;;;;5067731;28;20196;-87
2021/05/06 16:09:07;;;;;;;8.25;5.35;;;13.80;99.90;;;;;;5073067;28;20183;-87
2021/05/06 16:11:32;;;;;;;12.68;5.57;;;13.60;99.90;;;;;;5077572;28;20191;-87
2021/05/06 16:13:59;;;;;;;7.20;5.60;;;13.40;99.90;;;;;;5063230;28;20581;-87
2021/05/06 16:16:25;;;;;;;6.93;5.45;;;13.00;99.90;;;;;;5058140;28;20199;-87
2021/05/06 16:18:51;;;;;;;9.27;6.05;;;12.70;99.90;;;;;;5042014;28;20314;-87
2021/05/06 16:21:16;;;;;;;8.77;5.97;;;12.50;99.90;;;;;;5057846;28;20217;-86
2021/05/06 16:23:42;;;;;;;9.93;6.50;;;12.50;99.90;;;;;;5063929;28;20182;-86
2021/05/06 16:26:10;;;;;;;7.50;6.07;;;12.20;99.90;;;;;;5056579;28;20175;-87
2021/05/06 16:28:36;;;;;;;9.80;6.13;;;12.00;99.90;;;;;;5070673;28;20167;-86
2021/05/06 16:31:03;;;;;;;7.70;5.78;;;11.90;99.90;;;;;;5039285;28;20205;-86